createdAt,value
2023-01-22T00:01:46.984Z,15.21
2023-01-22T00:11:51.722Z,15.28
2023-01-22T00:21:53.123Z,15.36
2023-01-22T00:31:54.745Z,15.43
2023-01-22T00:41:56.370Z,15.54
2023-01-22T00:51:57.927Z,15.59
2023-01-22T01:01:59.343Z,15.65
2023-01-22T01:12:01.468Z,15.72
2023-01-22T01:22:02.864Z,15.75
2023-01-22T01:32:04.416Z,15.73
2023-01-22T01:42:05.860Z,15.63
2023-01-22T01:52:09.634Z,15.51
2023-01-22T02:02:11.340Z,15.37
2023-01-22T02:12:12.879Z,15.23
2023-01-22T02:22:20.772Z,15.15
2023-01-22T02:32:22.320Z,15.05
2023-01-22T02:42:23.985Z,14.92
2023-01-22T02:52:25.558Z,14.81
2023-01-22T03:02:27.112Z,14.80
2023-01-22T03:12:28.494Z,14.94
2023-01-22T03:22:29.859Z,15.13
2023-01-22T03:32:31.650Z,15.27
2023-01-22T03:42:33.046Z,15.37
2023-01-22T03:52:35.150Z,15.44
2023-01-22T04:02:37.865Z,15.50
2023-01-22T04:12:39.366Z,15.56
2023-01-22T04:22:40.769Z,15.65
2023-01-22T04:32:42.284Z,15.70
2023-01-22T04:42:43.747Z,15.72
2023-01-22T04:52:45.341Z,15.77
2023-01-22T05:02:46.749Z,15.81
2023-01-22T05:12:48.172Z,15.87
2023-01-22T05:22:49.580Z,15.94
2023-01-22T05:32:55.231Z,16.02
2023-01-22T05:42:56.791Z,16.07
2023-01-22T05:52:58.340Z,16.10
2023-01-22T06:03:00.218Z,16.12
2023-01-22T06:13:01.731Z,16.14
2023-01-22T06:23:03.096Z,16.13
2023-01-22T06:33:04.678Z,16.17
2023-01-22T06:43:06.483Z,16.17
2023-01-22T06:53:08.020Z,16.22
2023-01-22T07:03:09.555Z,16.23
2023-01-22T07:13:10.980Z,16.26
2023-01-22T07:23:12.416Z,16.25
2023-01-22T07:33:13.951Z,16.29
2023-01-22T07:43:16.119Z,16.30
2023-01-22T07:53:17.648Z,16.31
2023-01-22T08:03:19.019Z,16.33
2023-01-22T08:13:20.431Z,16.38
2023-01-22T08:23:22.217Z,16.41
2023-01-22T08:33:23.743Z,16.43
2023-01-22T08:43:25.172Z,16.40
2023-01-22T08:53:26.594Z,16.45
2023-01-22T09:03:28.614Z,16.45
2023-01-22T09:13:30.074Z,16.48
2023-01-22T09:23:31.632Z,16.50
2023-01-22T09:33:33.166Z,16.55
2023-01-22T09:43:37.038Z,16.60
2023-01-22T09:53:38.461Z,16.60
2023-01-22T10:03:42.026Z,16.66
2023-01-22T10:13:43.986Z,16.64
2023-01-22T10:23:45.590Z,16.67
2023-01-22T10:33:47.141Z,16.72
2023-01-22T10:43:48.627Z,16.78
2023-01-22T10:53:54.484Z,16.80
2023-01-22T11:03:56.049Z,16.79
2023-01-22T11:14:16.044Z,16.77
2023-01-22T11:24:36.502Z,16.77
2023-01-22T11:35:26.060Z,16.79
2023-01-22T11:45:39.181Z,16.80
2023-01-22T11:55:55.777Z,16.82
2023-01-22T12:06:22.217Z,16.82
2023-01-22T12:16:48.547Z,16.84
2023-01-22T12:27:12.772Z,16.82
2023-01-22T12:37:16.244Z,16.81
2023-01-22T12:47:56.365Z,16.83
2023-01-22T12:57:58.004Z,16.83
2023-01-22T13:08:17.724Z,16.81
2023-01-22T13:18:21.014Z,16.73
2023-01-22T13:28:22.920Z,16.60
2023-01-22T13:38:32.456Z,16.48
2023-01-22T13:48:33.840Z,16.36
2023-01-22T13:58:48.241Z,16.25
2023-01-22T14:08:51.702Z,16.12
2023-01-22T14:18:53.231Z,16.02
2023-01-22T14:28:54.621Z,15.91
2023-01-22T14:38:57.598Z,15.83
2023-01-22T14:49:01.619Z,15.73
2023-01-22T14:59:04.414Z,15.62
2023-01-22T15:09:05.931Z,15.56
2023-01-22T15:19:07.360Z,15.46
2023-01-22T15:29:10.240Z,15.38
2023-01-22T15:39:11.663Z,15.30
2023-01-22T15:49:13.204Z,15.25
2023-01-22T15:59:14.733Z,15.19
2023-01-22T16:09:16.254Z,15.11
2023-01-22T16:19:17.637Z,15.05
2023-01-22T16:29:19.232Z,14.97
2023-01-22T16:39:22.186Z,14.91
2023-01-22T16:49:25.011Z,14.83
2023-01-22T16:59:29.390Z,14.79
2023-01-22T17:09:32.419Z,14.78
2023-01-22T17:19:34.100Z,14.87
2023-01-22T17:29:36.311Z,15.02
2023-01-22T17:39:38.164Z,15.25
2023-01-22T17:49:39.731Z,15.41
2023-01-22T17:59:41.206Z,15.59
2023-01-22T18:09:42.758Z,15.69
2023-01-22T18:19:44.165Z,15.81
2023-01-22T18:29:45.646Z,15.87
2023-01-22T18:39:47.023Z,15.98
2023-01-22T18:49:49.689Z,16.02
2023-01-22T18:59:51.719Z,15.98
2023-01-22T19:09:53.403Z,15.89
2023-01-22T19:19:54.987Z,15.76
2023-01-22T19:29:56.541Z,15.67
2023-01-22T19:39:57.972Z,15.55
2023-01-22T19:49:59.418Z,15.46
2023-01-22T20:00:00.831Z,15.35
2023-01-22T20:10:02.231Z,15.25
2023-01-22T20:20:04.931Z,15.20
2023-01-22T20:30:07.001Z,15.12
2023-01-22T20:40:09.250Z,15.07
2023-01-22T20:50:11.218Z,15.06
2023-01-22T21:00:13.072Z,15.15
2023-01-22T21:10:15.042Z,15.30
2023-01-22T21:20:16.905Z,15.51
2023-01-22T21:30:18.673Z,15.59
2023-01-22T21:40:21.648Z,15.68
2023-01-22T21:50:23.213Z,15.77
2023-01-22T22:00:24.763Z,15.84
2023-01-22T22:10:26.121Z,15.93
2023-01-22T22:20:28.955Z,16.02
2023-01-22T22:30:30.368Z,16.07
2023-01-22T22:40:32.009Z,16.09
2023-01-22T22:50:33.464Z,16.01
2023-01-22T23:00:34.870Z,15.90
2023-01-22T23:10:37.771Z,15.80
2023-01-22T23:20:39.159Z,15.67
2023-01-22T23:30:40.566Z,15.56
2023-01-22T23:40:41.974Z,15.48
2023-01-22T23:50:44.421Z,15.35
